createdAt,value
2019-03-30T00:00:33.678Z,102399.84
2019-03-30T00:03:03.160Z,102399.34
2019-03-30T00:05:32.586Z,102393.59
2019-03-30T00:08:02.010Z,102399.31
2019-03-30T00:10:31.422Z,102394.42
2019-03-30T00:13:00.875Z,102392.16
2019-03-30T00:15:30.460Z,102389.27
2019-03-30T00:18:00.143Z,102384.43
2019-03-30T00:20:29.587Z,102384.18
2019-03-30T00:22:58.992Z,102384.67
2019-03-30T00:25:28.453Z,102384.50
2019-03-30T00:27:57.871Z,102385.85
2019-03-30T00:30:27.615Z,102377.88
2019-03-30T00:32:57.073Z,102376.30
2019-03-30T00:35:26.559Z,102373.98
2019-03-30T00:37:56.426Z,102367.78
2019-03-30T00:40:25.858Z,102367.85
2019-03-30T00:42:55.272Z,102366.19
2019-03-30T00:45:24.945Z,102363.39
2019-03-30T00:47:54.523Z,102354.27
2019-03-30T00:50:24.038Z,102359.56
2019-03-30T00:52:53.449Z,102352.23
2019-03-30T00:55:22.912Z,102350.39
2019-03-30T00:57:52.317Z,102345.23
2019-03-30T01:00:21.881Z,102344.23
2019-03-30T01:02:51.311Z,102336.67
2019-03-30T01:05:20.712Z,102332.66
2019-03-30T01:07:50.150Z,102334.31
2019-03-30T01:10:20.479Z,102324.17
2019-03-30T01:12:49.897Z,102325.24
2019-03-30T01:15:19.605Z,102321.17
2019-03-30T01:17:49.102Z,102319.58
2019-03-30T01:20:18.676Z,102318.33
2019-03-30T01:22:48.198Z,102311.27
2019-03-30T01:25:17.662Z,102313.65
2019-03-30T01:27:47.213Z,102314.38
2019-03-30T01:30:22.944Z,102311.30
2019-03-30T01:32:47.967Z,102304.37
2019-03-30T01:35:17.423Z,102313.78
2019-03-30T01:37:47.191Z,102314.09
2019-03-30T01:40:16.728Z,102304.31
2019-03-30T01:42:46.225Z,102305.36
2019-03-30T01:45:15.877Z,102300.42
2019-03-30T01:47:45.737Z,102301.77
2019-03-30T01:50:17.729Z,102301.64
2019-03-30T01:52:46.709Z,102290.34
2019-03-30T01:55:16.130Z,102285.23
2019-03-30T01:57:45.566Z,102288.50
2019-03-30T02:00:15.858Z,102278.14
2019-03-30T02:02:45.389Z,102289.33
2019-03-30T02:05:14.870Z,102279.11
2019-03-30T02:07:44.289Z,102277.59
2019-03-30T02:10:16.070Z,102274.34
2019-03-30T02:12:45.501Z,102277.50
2019-03-30T02:15:15.077Z,102268.50
2019-03-30T02:17:44.479Z,102264.69
2019-03-30T02:20:30.549Z,102266.91
2019-03-30T02:22:52.347Z,102272.43
2019-03-30T02:25:21.774Z,102274.84
2019-03-30T02:27:51.203Z,102269.55
2019-03-30T02:30:20.695Z,102271.95
2019-03-30T02:32:50.160Z,102261.73
2019-03-30T02:35:19.590Z,102256.55
2019-03-30T02:37:49.029Z,102258.61
2019-03-30T02:40:18.462Z,102258.45
2019-03-30T02:42:47.887Z,102261.83
2019-03-30T02:45:17.347Z,102257.31
2019-03-30T02:47:46.757Z,102257.06
2019-03-30T02:50:16.168Z,102261.81
2019-03-30T02:52:45.586Z,102260.32
2019-03-30T02:55:15.077Z,102261.61
2019-03-30T02:57:44.521Z,102270.23
2019-03-30T03:00:16.217Z,102258.63
2019-03-30T03:02:45.631Z,102261.34
2019-03-30T03:05:15.951Z,102254.88
2019-03-30T03:07:45.434Z,102252.41
2019-03-30T03:10:16.373Z,102245.69
2019-03-30T03:12:45.892Z,102233.94
2019-03-30T03:15:15.466Z,102238.34
2019-03-30T03:17:44.951Z,102234.31
2019-03-30T03:20:14.689Z,102235.70
2019-03-30T03:22:44.149Z,102237.47
2019-03-30T03:25:13.690Z,102231.89
2019-03-30T03:27:43.427Z,102233.72
2019-03-30T03:30:13.690Z,102232.95
2019-03-30T03:32:43.101Z,102229.72
2019-03-30T03:35:12.675Z,102235.56
2019-03-30T03:37:45.333Z,102232.81
2019-03-30T03:40:13.857Z,102228.27
2019-03-30T03:42:43.295Z,102228.39
2019-03-30T03:45:12.935Z,102228.52
2019-03-30T03:47:42.368Z,102234.03
2019-03-30T03:50:19.241Z,102234.53
2019-03-30T03:52:48.816Z,102224.17
2019-03-30T03:55:18.703Z,102226.73
2019-03-30T03:57:48.667Z,102227.05
2019-03-30T04:00:18.143Z,102219.61
2019-03-30T04:02:47.790Z,102219.17
2019-03-30T04:05:18.889Z,102222.96
2019-03-30T04:07:50.356Z,102221.68
2019-03-30T04:10:20.295Z,102223.14
2019-03-30T04:12:50.865Z,102218.30
2019-03-30T04:15:26.516Z,102215.47
2019-03-30T04:17:55.983Z,102208.55
2019-03-30T04:20:25.541Z,102213.36
2019-03-30T04:22:55.525Z,102208.50
2019-03-30T04:25:25.025Z,102205.20
2019-03-30T04:27:54.440Z,102206.31
2019-03-30T04:30:23.869Z,102202.05
2019-03-30T04:32:53.265Z,102200.50
2019-03-30T04:35:22.701Z,102203.04
2019-03-30T04:37:52.109Z,102207.04
2019-03-30T04:40:21.840Z,102201.56
2019-03-30T04:42:51.242Z,102196.18
2019-03-30T04:45:20.650Z,102203.48
2019-03-30T04:47:50.090Z,102204.58
2019-03-30T04:50:19.596Z,102200.59
2019-03-30T04:52:49.032Z,102205.47
2019-03-30T04:55:18.434Z,102199.63
2019-03-30T04:57:49.769Z,102197.70
2019-03-30T05:00:19.204Z,102199.18
2019-03-30T05:02:48.619Z,102202.47
2019-03-30T05:05:18.104Z,102206.67
2019-03-30T05:07:47.479Z,102202.84
2019-03-30T05:10:16.903Z,102201.95
2019-03-30T05:12:46.469Z,102199.81
2019-03-30T05:15:16.223Z,102198.89
2019-03-30T05:17:47.906Z,102200.54
2019-03-30T05:20:16.862Z,102200.53
2019-03-30T05:22:46.280Z,102196.50
2019-03-30T05:25:15.735Z,102195.09
2019-03-30T05:27:45.131Z,102197.29
2019-03-30T05:30:14.870Z,102197.63
2019-03-30T05:32:44.283Z,102199.24
2019-03-30T05:35:13.869Z,102195.14
2019-03-30T05:37:43.372Z,102194.30
2019-03-30T05:40:13.019Z,102193.16
2019-03-30T05:42:42.725Z,102190.22
2019-03-30T05:45:12.556Z,102192.89
2019-03-30T05:47:42.261Z,102200.56
2019-03-30T05:50:11.898Z,102199.05
2019-03-30T05:52:41.317Z,102199.36
2019-03-30T05:55:11.245Z,102202.42
2019-03-30T05:57:40.670Z,102208.63
2019-03-30T06:00:13.666Z,102213.95
2019-03-30T06:02:43.086Z,102211.69
2019-03-30T06:05:12.643Z,102213.45
2019-03-30T06:07:42.186Z,102209.32
2019-03-30T06:10:11.700Z,102209.80
2019-03-30T06:12:41.127Z,102222.73
2019-03-30T06:15:11.217Z,102221.84
2019-03-30T06:17:40.660Z,102210.23
2019-03-30T06:20:10.313Z,102209.03
2019-03-30T06:22:40.868Z,102209.20
2019-03-30T06:25:11.122Z,102210.89
2019-03-30T06:27:40.574Z,102214.28
2019-03-30T06:30:18.657Z,102213.28
2019-03-30T06:32:48.119Z,102215.47
2019-03-30T06:35:17.797Z,102215.34
2019-03-30T06:37:47.385Z,102217.33
2019-03-30T06:40:16.925Z,102219.04
2019-03-30T06:42:46.453Z,102219.33
2019-03-30T06:45:16.025Z,102213.34
2019-03-30T06:47:45.588Z,102221.36
2019-03-30T06:50:15.598Z,102224.08
2019-03-30T06:52:56.990Z,102227.81
2019-03-30T06:55:16.373Z,102224.06
2019-03-30T06:57:46.598Z,102227.03
2019-03-30T07:00:16.200Z,102221.26
2019-03-30T07:02:45.705Z,102225.23
2019-03-30T07:05:15.217Z,102216.72
2019-03-30T07:07:46.268Z,102220.09
2019-03-30T07:10:15.987Z,102222.24
2019-03-30T07:12:47.042Z,102219.81
2019-03-30T07:15:16.950Z,102220.05
2019-03-30T07:17:47.168Z,102224.36
2019-03-30T07:20:28.922Z,102222.33
2019-03-30T07:23:11.299Z,102225.80
2019-03-30T07:25:30.402Z,102218.62
2019-03-30T07:27:59.925Z,102216.22
2019-03-30T07:30:29.407Z,102214.88
2019-03-30T07:32:58.835Z,102219.83
2019-03-30T07:35:28.334Z,102225.64
2019-03-30T07:37:57.846Z,102221.61
2019-03-30T07:40:27.277Z,102222.44
2019-03-30T07:42:56.957Z,102222.36
2019-03-30T07:45:26.378Z,102223.29
2019-03-30T07:47:55.803Z,102219.73
2019-03-30T07:50:25.694Z,102224.25
2019-03-30T07:52:55.137Z,102225.91
2019-03-30T07:55:24.597Z,102214.96
2019-03-30T07:57:54.440Z,102224.05
2019-03-30T08:00:30.447Z,102223.71
2019-03-30T08:02:55.481Z,102218.13
2019-03-30T08:05:26.550Z,102228.04
2019-03-30T08:07:56.018Z,102221.72
2019-03-30T08:10:25.606Z,102217.52
2019-03-30T08:12:55.051Z,102219.59
2019-03-30T08:15:24.565Z,102230.09
2019-03-30T08:17:54.421Z,102233.56
2019-03-30T08:20:24.086Z,102231.77
2019-03-30T08:22:53.548Z,102228.72
2019-03-30T08:25:22.976Z,102234.53
2019-03-30T08:27:52.423Z,102236.45
2019-03-30T08:30:21.907Z,102238.25
2019-03-30T08:32:51.360Z,102233.63
2019-03-30T08:35:20.785Z,102236.44
2019-03-30T08:37:50.518Z,102235.53
2019-03-30T08:40:19.955Z,102231.44
2019-03-30T08:42:49.402Z,102236.13
2019-03-30T08:45:18.858Z,102236.09
2019-03-30T08:47:48.348Z,102229.59
2019-03-30T08:50:18.635Z,102230.52
2019-03-30T08:52:48.088Z,102240.73
2019-03-30T08:55:17.567Z,102234.80
2019-03-30T08:57:47.010Z,102243.50
2019-03-30T09:00:26.859Z,102241.11
2019-03-30T09:02:56.314Z,102240.37
2019-03-30T09:05:25.731Z,102238.98
2019-03-30T09:07:55.511Z,102242.42
2019-03-30T09:10:25.009Z,102238.08
2019-03-30T09:12:58.690Z,102236.84
2019-03-30T09:15:28.230Z,102237.28
2019-03-30T09:17:57.715Z,102232.34
2019-03-30T09:20:27.300Z,102232.41
2019-03-30T09:22:56.731Z,102233.90
2019-03-30T09:25:26.229Z,102235.88
2019-03-30T09:27:55.701Z,102233.36
2019-03-30T09:30:25.122Z,102226.15
2019-03-30T09:32:54.596Z,102226.86
2019-03-30T09:35:24.141Z,102225.92
2019-03-30T09:37:53.651Z,102224.60
2019-03-30T09:40:23.088Z,102223.57
2019-03-30T09:42:52.566Z,102222.34
2019-03-30T09:45:22.074Z,102222.92
2019-03-30T09:47:51.505Z,102223.53
2019-03-30T09:50:20.984Z,102223.75
2019-03-30T09:52:50.437Z,102223.35
2019-03-30T09:55:20.322Z,102220.46
2019-03-30T09:57:49.754Z,102219.89
2019-03-30T10:00:19.267Z,102222.81
2019-03-30T10:02:49.013Z,102214.33
2019-03-30T10:05:18.498Z,102211.88
2019-03-30T10:07:47.925Z,102212.44
2019-03-30T10:10:17.441Z,102215.64
2019-03-30T10:12:47.006Z,102212.02
2019-03-30T10:15:16.870Z,102213.92
2019-03-30T10:17:46.272Z,102209.30
2019-03-30T10:20:15.851Z,102211.67
2019-03-30T10:22:45.289Z,102211.82
2019-03-30T10:25:14.789Z,102205.02
2019-03-30T10:27:44.415Z,102208.37
2019-03-30T10:30:14.371Z,102209.59
2019-03-30T10:32:43.997Z,102206.50
2019-03-30T10:35:21.687Z,102198.73
2019-03-30T10:37:51.853Z,102197.58
2019-03-30T10:40:33.719Z,102189.08
2019-03-30T10:43:05.453Z,102190.27
2019-03-30T10:45:36.378Z,102191.79
2019-03-30T10:48:12.040Z,102187.06
2019-03-30T10:50:43.043Z,102183.44
2019-03-30T10:53:15.756Z,102190.86
2019-03-30T10:55:48.176Z,102185.34
2019-03-30T10:58:21.209Z,102177.16
2019-03-30T11:00:51.265Z,102182.89
2019-03-30T11:03:20.717Z,102175.55
2019-03-30T11:05:53.581Z,102175.08
2019-03-30T11:08:23.065Z,102177.29
2019-03-30T11:10:52.594Z,102175.23
2019-03-30T11:13:21.995Z,102172.13
2019-03-30T11:15:51.464Z,102170.25
2019-03-30T11:18:21.192Z,102166.21
2019-03-30T11:20:50.623Z,102169.20
2019-03-30T11:23:20.063Z,102159.67
2019-03-30T11:25:49.776Z,102163.62
2019-03-30T11:28:19.219Z,102162.95
2019-03-30T11:30:48.713Z,102160.16
2019-03-30T11:33:18.138Z,102156.55
2019-03-30T11:35:47.584Z,102153.55
2019-03-30T11:38:17.020Z,102158.02
2019-03-30T11:40:46.518Z,102153.89
2019-03-30T11:43:16.093Z,102144.77
2019-03-30T11:45:45.542Z,102145.43
2019-03-30T11:48:14.967Z,102147.56
2019-03-30T11:50:44.388Z,102154.70
2019-03-30T11:53:13.819Z,102151.55
2019-03-30T11:55:43.253Z,102146.91
2019-03-30T11:58:12.692Z,102151.22
2019-03-30T12:00:42.123Z,102148.23
2019-03-30T12:03:11.555Z,102146.09
2019-03-30T12:05:40.989Z,102145.91
2019-03-30T12:08:10.496Z,102140.59
2019-03-30T12:10:39.955Z,102139.59
2019-03-30T12:13:09.362Z,102143.42
2019-03-30T12:15:38.798Z,102140.28
2019-03-30T12:18:08.307Z,102139.58
2019-03-30T12:20:37.792Z,102135.98
2019-03-30T12:23:07.294Z,102137.58
2019-03-30T12:25:36.921Z,102133.19
2019-03-30T12:28:06.343Z,102125.73
2019-03-30T12:30:35.785Z,102123.41
2019-03-30T12:33:05.381Z,102118.76
2019-03-30T12:35:35.385Z,102121.73
2019-03-30T12:38:05.223Z,102120.39
2019-03-30T12:40:34.820Z,102115.93
2019-03-30T12:43:04.397Z,102110.17
2019-03-30T12:45:33.899Z,102106.00
2019-03-30T12:48:03.337Z,102103.86
2019-03-30T12:50:34.347Z,102107.66
2019-03-30T12:53:03.946Z,102096.73
2019-03-30T12:58:24.222Z,102097.90
2019-03-30T13:00:58.735Z,102091.45
2019-03-30T13:03:34.187Z,102095.75
2019-03-30T13:06:06.026Z,102099.73
2019-03-30T13:08:42.059Z,102082.66
2019-03-30T13:11:12.144Z,102077.21
2019-03-30T13:13:51.580Z,102074.36
2019-03-30T13:16:27.244Z,102079.20
2019-03-30T13:19:00.350Z,102071.73
2019-03-30T13:21:32.452Z,102078.03
2019-03-30T13:24:04.274Z,102078.52
2019-03-30T13:26:36.220Z,102074.87
2019-03-30T13:29:13.603Z,102067.70
2019-03-30T13:31:45.980Z,102065.25
2019-03-30T13:34:16.556Z,102065.77
2019-03-30T13:36:46.621Z,102058.45
2019-03-30T13:39:16.812Z,102058.64
2019-03-30T13:41:50.015Z,102053.86
2019-03-30T13:44:20.040Z,102050.67
2019-03-30T13:46:51.231Z,102044.88
2019-03-30T13:49:24.579Z,102046.45
2019-03-30T13:51:57.119Z,102043.55
2019-03-30T13:54:31.819Z,102040.08
2019-03-30T13:57:01.298Z,102045.72
2019-03-30T13:59:30.748Z,102044.91
2019-03-30T14:02:00.166Z,102043.61
2019-03-30T14:04:29.616Z,102033.84
2019-03-30T14:06:59.045Z,102031.36
2019-03-30T14:09:28.547Z,102033.00
2019-03-30T14:11:58.007Z,102032.84
2019-03-30T14:14:27.517Z,102023.38
2019-03-30T14:16:56.920Z,102024.73
2019-03-30T14:19:26.372Z,102027.72
2019-03-30T14:21:55.859Z,102023.55
2019-03-30T14:24:25.667Z,102018.42
2019-03-30T14:26:55.156Z,102018.62
2019-03-30T14:29:24.637Z,102018.12
2019-03-30T14:31:54.477Z,102012.66
2019-03-30T14:34:23.957Z,102019.23
2019-03-30T14:36:53.474Z,102011.80
2019-03-30T14:39:22.914Z,102008.17
2019-03-30T14:41:52.337Z,102003.37
2019-03-30T14:44:21.772Z,102001.72
2019-03-30T14:46:51.268Z,101999.39
2019-03-30T14:49:20.734Z,101999.09
2019-03-30T14:51:50.155Z,101988.67
2019-03-30T14:54:19.577Z,101989.48
2019-03-30T14:56:49.086Z,101989.48
2019-03-30T14:59:18.508Z,101986.63
2019-03-30T15:01:48.024Z,101985.64
2019-03-30T15:04:17.592Z,101985.48
2019-03-30T15:06:47.030Z,101984.84
2019-03-30T15:09:16.455Z,101980.23
2019-03-30T15:11:46.291Z,101979.05
2019-03-30T15:14:16.118Z,101972.90
2019-03-30T15:16:45.523Z,101971.45
2019-03-30T15:19:15.069Z,101975.20
2019-03-30T15:21:44.573Z,101963.00
2019-03-30T15:24:13.993Z,101965.98
2019-03-30T15:26:43.812Z,101957.69
2019-03-30T15:29:13.237Z,101960.70
2019-03-30T15:31:42.760Z,101961.34
2019-03-30T15:34:12.178Z,101961.03
2019-03-30T15:36:41.590Z,101955.06
2019-03-30T15:39:11.109Z,101948.44
2019-03-30T15:41:40.759Z,101951.89
2019-03-30T15:44:10.667Z,101951.73
2019-03-30T15:46:40.697Z,101955.03
2019-03-30T15:49:10.174Z,101952.50
2019-03-30T15:51:39.640Z,101950.77
2019-03-30T15:54:09.122Z,101950.11
2019-03-30T15:56:38.551Z,101953.42
2019-03-30T15:59:15.226Z,101956.89
2019-03-30T16:01:46.172Z,101953.42
2019-03-30T16:04:16.577Z,101958.55
2019-03-30T16:06:51.707Z,101953.89
2019-03-30T16:09:27.595Z,101954.71
2019-03-30T16:12:01.880Z,101960.17
2019-03-30T16:14:35.093Z,101963.34
2019-03-30T16:17:14.555Z,101959.04
2019-03-30T16:19:42.009Z,101955.37
2019-03-30T16:22:14.024Z,101957.53
2019-03-30T16:24:51.846Z,101956.88
2019-03-30T16:27:29.253Z,101963.83
2019-03-30T16:30:01.201Z,101962.17
2019-03-30T16:32:31.538Z,101960.17
2019-03-30T16:35:06.568Z,101960.85
2019-03-30T16:37:37.035Z,101960.19
2019-03-30T16:40:09.388Z,101962.45
2019-03-30T16:42:40.639Z,101958.64
2019-03-30T16:45:15.535Z,101961.78
2019-03-30T16:47:47.875Z,101961.10
2019-03-30T16:50:21.036Z,101962.41
2019-03-30T16:52:56.937Z,101966.19
2019-03-30T16:55:28.609Z,101964.82
2019-03-30T16:58:03.376Z,101961.83
2019-03-30T17:00:36.700Z,101964.64
2019-03-30T17:03:06.904Z,101971.40
2019-03-30T17:05:39.476Z,101969.89
2019-03-30T17:08:09.342Z,101971.08
2019-03-30T17:10:40.491Z,101971.58
2019-03-30T17:13:09.996Z,101971.41
2019-03-30T17:15:51.042Z,101967.45
2019-03-30T17:18:28.279Z,101970.86
2019-03-30T17:21:03.773Z,101970.47
2019-03-30T17:23:38.399Z,101968.29
2019-03-30T17:26:08.604Z,101966.97
2019-03-30T17:28:52.875Z,101969.87
2019-03-30T17:31:26.550Z,101969.16
2019-03-30T17:33:59.538Z,101971.61
2019-03-30T17:36:30.910Z,101966.93
2019-03-30T17:39:09.666Z,101968.33
2019-03-30T17:41:46.387Z,101977.20
2019-03-30T17:44:15.917Z,101974.37
2019-03-30T17:46:51.449Z,101977.11
2019-03-30T17:49:23.243Z,101983.34
2019-03-30T17:51:54.773Z,101983.94
2019-03-30T17:54:24.769Z,101983.33
2019-03-30T17:56:54.692Z,101986.00
2019-03-30T17:59:26.128Z,101982.46
2019-03-30T18:01:55.995Z,101985.11
2019-03-30T18:04:30.024Z,101992.44
2019-03-30T18:07:01.355Z,101991.65
2019-03-30T18:09:32.542Z,101992.34
2019-03-30T18:12:04.249Z,101996.52
2019-03-30T18:14:43.122Z,101999.82
2019-03-30T18:17:16.069Z,101997.42
2019-03-30T18:19:51.727Z,102001.92
2019-03-30T18:22:25.051Z,102005.16
2019-03-30T18:25:01.135Z,102011.19
2019-03-30T18:27:32.278Z,102011.78
2019-03-30T18:30:07.676Z,102015.53
2019-03-30T18:32:39.400Z,102019.92
2019-03-30T18:35:11.635Z,102022.18
2019-03-30T18:37:44.292Z,102026.91
2019-03-30T18:40:18.362Z,102028.83
2019-03-30T18:42:49.386Z,102036.56
2019-03-30T18:45:28.183Z,102034.78
2019-03-30T18:48:15.311Z,102041.36
2019-03-30T18:50:46.194Z,102040.94
2019-03-30T18:53:18.099Z,102049.08
2019-03-30T18:55:47.933Z,102047.59
2019-03-30T18:58:18.034Z,102048.79
2019-03-30T19:00:48.324Z,102044.98
2019-03-30T19:03:20.529Z,102053.89
2019-03-30T19:05:50.072Z,102052.00
2019-03-30T19:08:22.273Z,102050.81
2019-03-30T19:10:55.127Z,102056.80
2019-03-30T19:13:24.919Z,102060.52
2019-03-30T19:15:54.812Z,102064.84
2019-03-30T19:18:24.609Z,102065.36
2019-03-30T19:20:56.053Z,102067.75
2019-03-30T19:23:25.502Z,102070.77
2019-03-30T19:25:54.961Z,102072.30
2019-03-30T19:28:24.416Z,102079.65
2019-03-30T19:30:53.832Z,102072.22
2019-03-30T19:33:23.260Z,102077.28
2019-03-30T19:35:52.720Z,102076.45
2019-03-30T19:38:22.152Z,102079.85
2019-03-30T19:40:51.592Z,102079.72
2019-03-30T19:43:21.031Z,102081.05
2019-03-30T19:45:50.457Z,102087.38
2019-03-30T19:48:19.906Z,102087.23
2019-03-30T19:50:49.356Z,102092.80
2019-03-30T19:53:18.789Z,102088.20
2019-03-30T19:55:48.213Z,102091.94
2019-03-30T19:58:17.652Z,102091.52
2019-03-30T20:00:47.160Z,102100.95
2019-03-30T20:03:16.737Z,102093.61
2019-03-30T20:05:46.196Z,102096.43
2019-03-30T20:08:15.616Z,102096.12
2019-03-30T20:10:45.049Z,102092.25
2019-03-30T20:13:14.558Z,102093.22
2019-03-30T20:15:43.983Z,102095.34
2019-03-30T20:18:13.781Z,102095.11
2019-03-30T20:20:43.486Z,102094.09
2019-03-30T20:23:13.042Z,102101.53
2019-03-30T20:25:42.487Z,102104.33
2019-03-30T20:28:11.976Z,102107.41
2019-03-30T20:30:41.414Z,102105.81
2019-03-30T20:33:10.850Z,102101.01
2019-03-30T20:35:40.392Z,102098.06
2019-03-30T20:38:09.825Z,102095.90
2019-03-30T20:40:39.256Z,102102.36
2019-03-30T20:43:08.693Z,102097.80
2019-03-30T20:45:38.113Z,102100.48
2019-03-30T20:48:07.560Z,102099.41
2019-03-30T20:50:37.052Z,102096.79
2019-03-30T20:53:06.561Z,102092.53
2019-03-30T20:55:35.994Z,102094.72
2019-03-30T20:58:05.506Z,102103.76
2019-03-30T21:00:34.967Z,102103.63
2019-03-30T21:03:04.662Z,102112.98
2019-03-30T21:05:34.093Z,102111.83
2019-03-30T21:08:03.536Z,102111.55
2019-03-30T21:10:32.955Z,102115.41
2019-03-30T21:13:02.385Z,102115.70
2019-03-30T21:15:31.869Z,102118.02
2019-03-30T21:18:01.314Z,102121.23
2019-03-30T21:20:30.731Z,102114.42
2019-03-30T21:23:00.216Z,102119.00
2019-03-30T21:25:29.976Z,102118.97
2019-03-30T21:27:59.391Z,102123.81
2019-03-30T21:30:28.904Z,102127.11
2019-03-30T21:32:58.308Z,102120.39
2019-03-30T21:35:27.735Z,102120.09
2019-03-30T21:37:58.685Z,102122.78
2019-03-30T21:40:28.322Z,102118.42
2019-03-30T21:42:57.759Z,102116.00
2019-03-30T21:45:27.457Z,102118.33
2019-03-30T21:47:56.884Z,102115.73
2019-03-30T21:50:26.407Z,102116.94
2019-03-30T21:52:55.817Z,102122.53
2019-03-30T21:55:25.258Z,102116.56
2019-03-30T21:57:54.666Z,102116.64
2019-03-30T22:00:40.871Z,102119.48
2019-03-30T22:03:10.365Z,102114.95
2019-03-30T22:05:39.891Z,102110.91
2019-03-30T22:08:10.143Z,102114.47
2019-03-30T22:10:39.544Z,102121.24
2019-03-30T22:13:09.048Z,102122.99
2019-03-30T22:15:38.853Z,102124.91
2019-03-30T22:18:08.254Z,102116.73
2019-03-30T22:20:37.686Z,102114.66
2019-03-30T22:23:07.091Z,102117.69
2019-03-30T22:25:36.645Z,102112.03
2019-03-30T22:28:06.086Z,102113.09
2019-03-30T22:30:35.511Z,102113.09
2019-03-30T22:33:05.000Z,102119.86
2019-03-30T22:35:34.410Z,102114.63
2019-03-30T22:38:03.918Z,102110.04
2019-03-30T22:40:33.328Z,102118.84
2019-03-30T22:43:02.755Z,102119.08
2019-03-30T22:45:32.185Z,102121.89
2019-03-30T22:48:01.591Z,102120.52
2019-03-30T22:50:31.019Z,102125.95
2019-03-30T22:53:00.414Z,102123.11
2019-03-30T22:55:29.863Z,102126.17
2019-03-30T22:57:59.286Z,102119.07
2019-03-30T23:00:42.095Z,102120.75
2019-03-30T23:03:12.017Z,102122.70
2019-03-30T23:05:41.416Z,102124.63
2019-03-30T23:08:10.915Z,102117.34
2019-03-30T23:10:40.668Z,102113.43
2019-03-30T23:13:10.107Z,102116.83
2019-03-30T23:15:39.512Z,102122.94
2019-03-30T23:18:09.003Z,102116.06
2019-03-30T23:20:38.417Z,102122.41
2019-03-30T23:23:07.889Z,102118.11
2019-03-30T23:25:37.335Z,102114.36
2019-03-30T23:28:06.740Z,102113.97
2019-03-30T23:30:36.219Z,102112.85
2019-03-30T23:33:05.718Z,102114.95
2019-03-30T23:35:35.142Z,102107.61
2019-03-30T23:38:04.656Z,102105.24
2019-03-30T23:40:34.064Z,102105.27
2019-03-30T23:43:03.483Z,102104.53
2019-03-30T23:45:32.915Z,102097.23
2019-03-30T23:48:02.345Z,102098.34
2019-03-30T23:50:31.759Z,102098.51
2019-03-30T23:53:01.179Z,102091.13
2019-03-30T23:55:30.603Z,102095.05
2019-03-30T23:58:00.040Z,102092.25
